sensor_id;sensor_type;location;lat;lon;timestamp;P1;durP1;ratioP1;P2;durP2;ratioP2
19235;SDS011;9752;54.270;12.470;2023-07-30T00:03:55;17.37;;;13.73;;
19235;SDS011;9752;54.270;12.470;2023-07-30T00:08:59;16.47;;;14.10;;
19235;SDS011;9752;54.270;12.470;2023-07-30T00:14:00;21.77;;;14.40;;
19235;SDS011;9752;54.270;12.470;2023-07-30T00:19:02;16.87;;;15.00;;
19235;SDS011;9752;54.270;12.470;2023-07-30T00:24:05;20.07;;;14.90;;
19235;SDS011;9752;54.270;12.470;2023-07-30T00:29:07;22.07;;;13.80;;
19235;SDS011;9752;54.270;12.470;2023-07-30T00:34:08;19.57;;;13.17;;
19235;SDS011;9752;54.270;12.470;2023-07-30T00:39:11;22.23;;;13.70;;
19235;SDS011;9752;54.270;12.470;2023-07-30T00:44:13;13.53;;;11.27;;
19235;SDS011;9752;54.270;12.470;2023-07-30T00:49:15;18.20;;;13.00;;
19235;SDS011;9752;54.270;12.470;2023-07-30T00:54:19;17.83;;;13.47;;
19235;SDS011;9752;54.270;12.470;2023-07-30T00:59:20;16.67;;;12.87;;
19235;SDS011;9752;54.270;12.470;2023-07-30T01:04:22;17.30;;;14.03;;
19235;SDS011;9752;54.270;12.470;2023-07-30T01:09:26;16.90;;;13.50;;
19235;SDS011;9752;54.270;12.470;2023-07-30T01:14:28;17.37;;;12.50;;
19235;SDS011;9752;54.270;12.470;2023-07-30T01:19:31;23.73;;;16.57;;
19235;SDS011;9752;54.270;12.470;2023-07-30T01:24:34;14.07;;;12.57;;
19235;SDS011;9752;54.270;12.470;2023-07-30T01:29:38;14.50;;;12.73;;
19235;SDS011;9752;54.270;12.470;2023-07-30T01:34:43;18.57;;;12.57;;
19235;SDS011;9752;54.270;12.470;2023-07-30T01:39:48;14.33;;;11.87;;
19235;SDS011;9752;54.270;12.470;2023-07-30T01:44:51;17.23;;;13.50;;
19235;SDS011;9752;54.270;12.470;2023-07-30T01:49:53;19.17;;;12.90;;
19235;SDS011;9752;54.270;12.470;2023-07-30T01:54:56;18.70;;;13.53;;
19235;SDS011;9752;54.270;12.470;2023-07-30T01:59:59;22.80;;;16.87;;
19235;SDS011;9752;54.270;12.470;2023-07-30T02:05:00;22.23;;;16.27;;
19235;SDS011;9752;54.270;12.470;2023-07-30T02:10:04;19.23;;;13.47;;
19235;SDS011;9752;54.270;12.470;2023-07-30T02:15:08;18.00;;;14.33;;
19235;SDS011;9752;54.270;12.470;2023-07-30T02:20:10;25.03;;;16.80;;
19235;SDS011;9752;54.270;12.470;2023-07-30T02:25:13;17.37;;;14.30;;
19235;SDS011;9752;54.270;12.470;2023-07-30T02:30:15;19.57;;;15.17;;
19235;SDS011;9752;54.270;12.470;2023-07-30T02:35:17;30.53;;;17.57;;
19235;SDS011;9752;54.270;12.470;2023-07-30T02:40:20;23.90;;;16.50;;
19235;SDS011;9752;54.270;12.470;2023-07-30T02:45:23;28.40;;;15.47;;
19235;SDS011;9752;54.270;12.470;2023-07-30T02:50:24;27.73;;;16.20;;
19235;SDS011;9752;54.270;12.470;2023-07-30T02:55:28;27.17;;;17.07;;
19235;SDS011;9752;54.270;12.470;2023-07-30T03:00:29;20.60;;;14.53;;
19235;SDS011;9752;54.270;12.470;2023-07-30T03:05:31;20.43;;;15.30;;
19235;SDS011;9752;54.270;12.470;2023-07-30T03:10:34;18.03;;;13.67;;
19235;SDS011;9752;54.270;12.470;2023-07-30T03:15:37;24.03;;;15.37;;
19235;SDS011;9752;54.270;12.470;2023-07-30T03:20:39;25.47;;;16.97;;
19235;SDS011;9752;54.270;12.470;2023-07-30T03:25:42;22.67;;;16.00;;
19235;SDS011;9752;54.270;12.470;2023-07-30T03:30:43;17.13;;;14.40;;
19235;SDS011;9752;54.270;12.470;2023-07-30T03:35:45;21.63;;;17.23;;
19235;SDS011;9752;54.270;12.470;2023-07-30T03:40:48;23.87;;;16.23;;
19235;SDS011;9752;54.270;12.470;2023-07-30T03:45:50;16.23;;;13.17;;
19235;SDS011;9752;54.270;12.470;2023-07-30T03:50:51;20.47;;;15.07;;
19235;SDS011;9752;54.270;12.470;2023-07-30T03:55:54;22.40;;;15.93;;
19235;SDS011;9752;54.270;12.470;2023-07-30T04:00:56;16.77;;;13.47;;
19235;SDS011;9752;54.270;12.470;2023-07-30T04:05:58;19.77;;;14.47;;
19235;SDS011;9752;54.270;12.470;2023-07-30T04:11:01;15.80;;;14.07;;
19235;SDS011;9752;54.270;12.470;2023-07-30T04:16:03;25.83;;;15.10;;
19235;SDS011;9752;54.270;12.470;2023-07-30T04:21:05;18.37;;;14.40;;
19235;SDS011;9752;54.270;12.470;2023-07-30T04:26:08;20.77;;;13.30;;
19235;SDS011;9752;54.270;12.470;2023-07-30T04:31:10;21.83;;;13.67;;
19235;SDS011;9752;54.270;12.470;2023-07-30T04:36:11;17.30;;;14.07;;
19235;SDS011;9752;54.270;12.470;2023-07-30T04:41:14;17.60;;;13.50;;
19235;SDS011;9752;54.270;12.470;2023-07-30T04:46:21;22.07;;;13.97;;
19235;SDS011;9752;54.270;12.470;2023-07-30T04:51:23;20.07;;;14.37;;
19235;SDS011;9752;54.270;12.470;2023-07-30T04:56:26;29.23;;;13.53;;
19235;SDS011;9752;54.270;12.470;2023-07-30T05:01:28;22.20;;;11.80;;
19235;SDS011;9752;54.270;12.470;2023-07-30T05:06:31;18.10;;;13.00;;
19235;SDS011;9752;54.270;12.470;2023-07-30T05:11:34;17.37;;;12.33;;
19235;SDS011;9752;54.270;12.470;2023-07-30T05:16:36;17.00;;;11.87;;
19235;SDS011;9752;54.270;12.470;2023-07-30T05:21:37;16.23;;;13.67;;
19235;SDS011;9752;54.270;12.470;2023-07-30T05:26:41;23.90;;;13.10;;
19235;SDS011;9752;54.270;12.470;2023-07-30T05:31:42;15.53;;;10.60;;
19235;SDS011;9752;54.270;12.470;2023-07-30T05:36:44;17.67;;;11.10;;
19235;SDS011;9752;54.270;12.470;2023-07-30T05:41:47;16.43;;;12.20;;
19235;SDS011;9752;54.270;12.470;2023-07-30T05:46:48;13.47;;;10.30;;
19235;SDS011;9752;54.270;12.470;2023-07-30T05:51:50;17.60;;;11.43;;
19235;SDS011;9752;54.270;12.470;2023-07-30T05:56:53;13.33;;;11.63;;
19235;SDS011;9752;54.270;12.470;2023-07-30T06:01:55;11.67;;;9.37;;
19235;SDS011;9752;54.270;12.470;2023-07-30T06:06:58;10.90;;;8.50;;
19235;SDS011;9752;54.270;12.470;2023-07-30T06:12:02;9.67;;;8.50;;
19235;SDS011;9752;54.270;12.470;2023-07-30T06:17:04;11.73;;;7.67;;
19235;SDS011;9752;54.270;12.470;2023-07-30T06:22:06;11.60;;;7.97;;
19235;SDS011;9752;54.270;12.470;2023-07-30T06:27:09;12.97;;;8.00;;
19235;SDS011;9752;54.270;12.470;2023-07-30T06:32:10;9.10;;;7.80;;
19235;SDS011;9752;54.270;12.470;2023-07-30T06:37:12;11.83;;;7.87;;
19235;SDS011;9752;54.270;12.470;2023-07-30T06:42:15;6.73;;;5.97;;
19235;SDS011;9752;54.270;12.470;2023-07-30T06:47:17;7.23;;;6.63;;
19235;SDS011;9752;54.270;12.470;2023-07-30T06:52:18;6.37;;;5.77;;
19235;SDS011;9752;54.270;12.470;2023-07-30T06:57:22;7.63;;;6.80;;
19235;SDS011;9752;54.270;12.470;2023-07-30T07:02:23;8.50;;;7.77;;
19235;SDS011;9752;54.270;12.470;2023-07-30T07:07:25;10.83;;;7.37;;
19235;SDS011;9752;54.270;12.470;2023-07-30T07:12:28;8.10;;;7.40;;
19235;SDS011;9752;54.270;12.470;2023-07-30T07:17:30;8.27;;;7.53;;
19235;SDS011;9752;54.270;12.470;2023-07-30T07:22:32;8.53;;;7.83;;
19235;SDS011;9752;54.270;12.470;2023-07-30T07:27:35;8.67;;;7.87;;
19235;SDS011;9752;54.270;12.470;2023-07-30T07:32:37;7.97;;;7.27;;
19235;SDS011;9752;54.270;12.470;2023-07-30T07:37:39;8.87;;;8.17;;
19235;SDS011;9752;54.270;12.470;2023-07-30T07:42:41;8.60;;;7.90;;
19235;SDS011;9752;54.270;12.470;2023-07-30T07:47:43;9.53;;;8.93;;
19235;SDS011;9752;54.270;12.470;2023-07-30T07:52:45;8.43;;;7.90;;
19235;SDS011;9752;54.270;12.470;2023-07-30T07:57:48;9.33;;;8.63;;
19235;SDS011;9752;54.270;12.470;2023-07-30T08:02:49;8.90;;;8.40;;
19235;SDS011;9752;54.270;12.470;2023-07-30T08:07:51;8.77;;;7.93;;
19235;SDS011;9752;54.270;12.470;2023-07-30T08:12:54;8.93;;;8.07;;
19235;SDS011;9752;54.270;12.470;2023-07-30T08:17:56;7.97;;;7.47;;
19235;SDS011;9752;54.270;12.470;2023-07-30T08:22:57;11.07;;;10.07;;
19235;SDS011;9752;54.270;12.470;2023-07-30T08:28:00;9.93;;;9.33;;
19235;SDS011;9752;54.270;12.470;2023-07-30T08:33:02;11.20;;;10.60;;
19235;SDS011;9752;54.270;12.470;2023-07-30T08:38:04;10.33;;;9.60;;
19235;SDS011;9752;54.270;12.470;2023-07-30T08:43:07;9.30;;;8.67;;
19235;SDS011;9752;54.270;12.470;2023-07-30T08:48:09;11.40;;;10.60;;
19235;SDS011;9752;54.270;12.470;2023-07-30T08:53:10;11.17;;;10.37;;
19235;SDS011;9752;54.270;12.470;2023-07-30T08:58:14;10.80;;;10.00;;
19235;SDS011;9752;54.270;12.470;2023-07-30T09:03:17;11.53;;;10.87;;
19235;SDS011;9752;54.270;12.470;2023-07-30T09:08:19;11.27;;;10.50;;
19235;SDS011;9752;54.270;12.470;2023-07-30T09:13:24;10.73;;;10.17;;
19235;SDS011;9752;54.270;12.470;2023-07-30T09:18:26;10.93;;;10.20;;
19235;SDS011;9752;54.270;12.470;2023-07-30T09:23:27;12.53;;;11.60;;
19235;SDS011;9752;54.270;12.470;2023-07-30T09:28:31;12.77;;;11.80;;
19235;SDS011;9752;54.270;12.470;2023-07-30T09:33:33;11.30;;;10.70;;
19235;SDS011;9752;54.270;12.470;2023-07-30T09:38:38;10.53;;;9.83;;
19235;SDS011;9752;54.270;12.470;2023-07-30T09:43:41;10.73;;;10.03;;
19235;SDS011;9752;54.270;12.470;2023-07-30T09:48:43;10.67;;;9.87;;
19235;SDS011;9752;54.270;12.470;2023-07-30T09:53:45;9.77;;;9.17;;
19235;SDS011;9752;54.270;12.470;2023-07-30T09:58:48;11.30;;;10.50;;
19235;SDS011;9752;54.270;12.470;2023-07-30T10:03:50;12.07;;;11.17;;
19235;SDS011;9752;54.270;12.470;2023-07-30T10:08:52;10.67;;;9.77;;
19235;SDS011;9752;54.270;12.470;2023-07-30T10:13:57;9.57;;;8.83;;
19235;SDS011;9752;54.270;12.470;2023-07-30T10:18:59;10.07;;;9.17;;
19235;SDS011;9752;54.270;12.470;2023-07-30T10:24:01;9.97;;;9.17;;
19235;SDS011;9752;54.270;12.470;2023-07-30T10:29:16;10.53;;;9.67;;
19235;SDS011;9752;54.270;12.470;2023-07-30T10:34:19;12.10;;;11.10;;
19235;SDS011;9752;54.270;12.470;2023-07-30T10:39:21;12.37;;;11.73;;
19235;SDS011;9752;54.270;12.470;2023-07-30T10:44:31;13.03;;;12.30;;
19235;SDS011;9752;54.270;12.470;2023-07-30T10:49:35;13.47;;;12.37;;
19235;SDS011;9752;54.270;12.470;2023-07-30T10:54:38;13.63;;;12.50;;
19235;SDS011;9752;54.270;12.470;2023-07-30T10:59:41;13.70;;;12.90;;
19235;SDS011;9752;54.270;12.470;2023-07-30T11:04:43;14.37;;;13.40;;
19235;SDS011;9752;54.270;12.470;2023-07-30T11:09:45;15.97;;;14.67;;
19235;SDS011;9752;54.270;12.470;2023-07-30T11:14:48;14.17;;;13.20;;
19235;SDS011;9752;54.270;12.470;2023-07-30T11:19:49;16.37;;;15.57;;
19235;SDS011;9752;54.270;12.470;2023-07-30T11:24:51;16.33;;;15.40;;
19235;SDS011;9752;54.270;12.470;2023-07-30T11:29:55;16.30;;;15.40;;
19235;SDS011;9752;54.270;12.470;2023-07-30T11:34:57;16.17;;;15.40;;
19235;SDS011;9752;54.270;12.470;2023-07-30T11:40:00;16.87;;;15.70;;
19235;SDS011;9752;54.270;12.470;2023-07-30T11:45:19;16.67;;;15.67;;
19235;SDS011;9752;54.270;12.470;2023-07-30T11:50:22;15.73;;;14.73;;
19235;SDS011;9752;54.270;12.470;2023-07-30T11:55:23;17.47;;;16.20;;
19235;SDS011;9752;54.270;12.470;2023-07-30T12:00:39;17.67;;;16.37;;
19235;SDS011;9752;54.270;12.470;2023-07-30T12:05:42;16.63;;;15.83;;
19235;SDS011;9752;54.270;12.470;2023-07-30T12:10:44;17.60;;;16.50;;
19235;SDS011;9752;54.270;12.470;2023-07-30T12:15:51;16.67;;;15.67;;
19235;SDS011;9752;54.270;12.470;2023-07-30T12:20:54;16.97;;;15.83;;
19235;SDS011;9752;54.270;12.470;2023-07-30T12:25:56;16.97;;;15.90;;
19235;SDS011;9752;54.270;12.470;2023-07-30T12:30:59;17.90;;;16.80;;
19235;SDS011;9752;54.270;12.470;2023-07-30T12:36:01;16.87;;;15.87;;
19235;SDS011;9752;54.270;12.470;2023-07-30T12:41:03;15.67;;;14.70;;
19235;SDS011;9752;54.270;12.470;2023-07-30T12:46:06;15.67;;;14.83;;
19235;SDS011;9752;54.270;12.470;2023-07-30T12:51:07;15.83;;;14.73;;
19235;SDS011;9752;54.270;12.470;2023-07-30T12:56:09;16.93;;;15.73;;
19235;SDS011;9752;54.270;12.470;2023-07-30T13:01:13;17.27;;;16.23;;
19235;SDS011;9752;54.270;12.470;2023-07-30T13:06:15;17.63;;;16.43;;
19235;SDS011;9752;54.270;12.470;2023-07-30T13:11:17;17.23;;;15.83;;
19235;SDS011;9752;54.270;12.470;2023-07-30T13:16:20;17.83;;;16.00;;
19235;SDS011;9752;54.270;12.470;2023-07-30T13:21:23;15.03;;;14.23;;
19235;SDS011;9752;54.270;12.470;2023-07-30T13:26:24;23.47;;;21.67;;
19235;SDS011;9752;54.270;12.470;2023-07-30T13:31:30;25.63;;;20.90;;
19235;SDS011;9752;54.270;12.470;2023-07-30T13:36:31;18.90;;;15.50;;
19235;SDS011;9752;54.270;12.470;2023-07-30T13:41:33;19.57;;;15.30;;
19235;SDS011;9752;54.270;12.470;2023-07-30T13:46:36;15.00;;;13.70;;
19235;SDS011;9752;54.270;12.470;2023-07-30T13:51:40;16.37;;;14.83;;
19235;SDS011;9752;54.270;12.470;2023-07-30T13:56:42;15.97;;;14.33;;
19235;SDS011;9752;54.270;12.470;2023-07-30T14:01:45;16.63;;;15.00;;
19235;SDS011;9752;54.270;12.470;2023-07-30T14:06:46;21.77;;;16.97;;
19235;SDS011;9752;54.270;12.470;2023-07-30T14:11:48;23.83;;;16.87;;
19235;SDS011;9752;54.270;12.470;2023-07-30T14:16:51;24.30;;;16.77;;
19235;SDS011;9752;54.270;12.470;2023-07-30T14:21:53;16.00;;;14.60;;
19235;SDS011;9752;54.270;12.470;2023-07-30T14:26:54;18.03;;;15.70;;
19235;SDS011;9752;54.270;12.470;2023-07-30T14:31:58;17.50;;;16.00;;
19235;SDS011;9752;54.270;12.470;2023-07-30T14:36:59;16.57;;;14.93;;
19235;SDS011;9752;54.270;12.470;2023-07-30T14:42:01;19.13;;;15.07;;
19235;SDS011;9752;54.270;12.470;2023-07-30T14:47:04;20.97;;;15.23;;
19235;SDS011;9752;54.270;12.470;2023-07-30T14:52:08;19.30;;;17.43;;
19235;SDS011;9752;54.270;12.470;2023-07-30T14:57:10;19.40;;;17.33;;
19235;SDS011;9752;54.270;12.470;2023-07-30T15:02:13;17.80;;;15.97;;
19235;SDS011;9752;54.270;12.470;2023-07-30T15:07:15;23.53;;;17.20;;
19235;SDS011;9752;54.270;12.470;2023-07-30T15:12:16;21.07;;;18.87;;
19235;SDS011;9752;54.270;12.470;2023-07-30T15:17:19;25.73;;;23.03;;
19235;SDS011;9752;54.270;12.470;2023-07-30T15:22:21;24.80;;;22.47;;
19235;SDS011;9752;54.270;12.470;2023-07-30T15:27:23;21.30;;;19.37;;
19235;SDS011;9752;54.270;12.470;2023-07-30T15:32:27;25.50;;;19.60;;
19235;SDS011;9752;54.270;12.470;2023-07-30T15:37:30;21.77;;;19.17;;
19235;SDS011;9752;54.270;12.470;2023-07-30T15:42:33;21.93;;;18.50;;
19235;SDS011;9752;54.270;12.470;2023-07-30T15:47:36;23.77;;;21.57;;
19235;SDS011;9752;54.270;12.470;2023-07-30T15:52:38;22.93;;;20.90;;
19235;SDS011;9752;54.270;12.470;2023-07-30T15:57:40;18.83;;;17.20;;
19235;SDS011;9752;54.270;12.470;2023-07-30T16:02:43;21.13;;;19.53;;
19235;SDS011;9752;54.270;12.470;2023-07-30T16:07:44;20.73;;;13.77;;
19235;SDS011;9752;54.270;12.470;2023-07-30T16:12:47;21.57;;;12.73;;
19235;SDS011;9752;54.270;12.470;2023-07-30T16:17:50;27.10;;;13.30;;
19235;SDS011;9752;54.270;12.470;2023-07-30T16:22:52;20.27;;;11.93;;
19235;SDS011;9752;54.270;12.470;2023-07-30T16:27:54;12.57;;;10.67;;
19235;SDS011;9752;54.270;12.470;2023-07-30T16:32:57;11.27;;;10.13;;
19235;SDS011;9752;54.270;12.470;2023-07-30T16:37:58;14.40;;;10.10;;
19235;SDS011;9752;54.270;12.470;2023-07-30T16:43:00;15.50;;;10.30;;
19235;SDS011;9752;54.270;12.470;2023-07-30T16:48:04;14.03;;;9.03;;
19235;SDS011;9752;54.270;12.470;2023-07-30T16:53:06;15.73;;;9.93;;
19235;SDS011;9752;54.270;12.470;2023-07-30T16:58:07;12.57;;;10.07;;
19235;SDS011;9752;54.270;12.470;2023-07-30T17:03:10;22.03;;;10.03;;
19235;SDS011;9752;54.270;12.470;2023-07-30T17:08:12;10.00;;;9.17;;
19235;SDS011;9752;54.270;12.470;2023-07-30T17:13:14;9.37;;;8.63;;
19235;SDS011;9752;54.270;12.470;2023-07-30T17:18:17;12.23;;;11.27;;
19235;SDS011;9752;54.270;12.470;2023-07-30T17:23:19;13.33;;;12.60;;
19235;SDS011;9752;54.270;12.470;2023-07-30T17:28:20;11.80;;;10.80;;
19235;SDS011;9752;54.270;12.470;2023-07-30T17:33:23;9.83;;;9.03;;
19235;SDS011;9752;54.270;12.470;2023-07-30T17:38:25;8.73;;;7.90;;
19235;SDS011;9752;54.270;12.470;2023-07-30T17:43:27;8.70;;;7.60;;
19235;SDS011;9752;54.270;12.470;2023-07-30T17:48:31;7.60;;;6.90;;
19235;SDS011;9752;54.270;12.470;2023-07-30T17:53:32;10.47;;;6.37;;
19235;SDS011;9752;54.270;12.470;2023-07-30T17:58:34;7.93;;;6.87;;
19235;SDS011;9752;54.270;12.470;2023-07-30T18:03:37;7.03;;;6.40;;
19235;SDS011;9752;54.270;12.470;2023-07-30T18:08:39;13.33;;;7.00;;
19235;SDS011;9752;54.270;12.470;2023-07-30T18:13:42;11.57;;;7.10;;
19235;SDS011;9752;54.270;12.470;2023-07-30T18:18:45;8.90;;;6.87;;
19235;SDS011;9752;54.270;12.470;2023-07-30T18:23:47;9.03;;;5.80;;
19235;SDS011;9752;54.270;12.470;2023-07-30T18:28:48;9.07;;;6.03;;
19235;SDS011;9752;54.270;12.470;2023-07-30T18:33:52;9.57;;;6.03;;
19235;SDS011;9752;54.270;12.470;2023-07-30T18:38:53;9.57;;;6.30;;
19235;SDS011;9752;54.270;12.470;2023-07-30T18:43:55;12.33;;;6.13;;
19235;SDS011;9752;54.270;12.470;2023-07-30T18:48:58;6.30;;;5.67;;
19235;SDS011;9752;54.270;12.470;2023-07-30T18:54:00;9.80;;;6.30;;
19235;SDS011;9752;54.270;12.470;2023-07-30T18:59:02;8.27;;;5.80;;
19235;SDS011;9752;54.270;12.470;2023-07-30T19:04:05;7.07;;;6.33;;
19235;SDS011;9752;54.270;12.470;2023-07-30T19:09:07;11.20;;;6.53;;
19235;SDS011;9752;54.270;12.470;2023-07-30T19:14:08;8.50;;;6.37;;
19235;SDS011;9752;54.270;12.470;2023-07-30T19:19:11;7.93;;;6.37;;
19235;SDS011;9752;54.270;12.470;2023-07-30T19:24:13;10.90;;;6.73;;
19235;SDS011;9752;54.270;12.470;2023-07-30T19:29:15;6.90;;;6.10;;
19235;SDS011;9752;54.270;12.470;2023-07-30T19:34:18;8.07;;;5.77;;
19235;SDS011;9752;54.270;12.470;2023-07-30T19:39:20;8.80;;;6.20;;
19235;SDS011;9752;54.270;12.470;2023-07-30T19:44:21;8.13;;;6.00;;
19235;SDS011;9752;54.270;12.470;2023-07-30T19:49:24;9.00;;;5.50;;
19235;SDS011;9752;54.270;12.470;2023-07-30T19:54:26;9.17;;;6.53;;
19235;SDS011;9752;54.270;12.470;2023-07-30T19:59:28;7.13;;;5.43;;
19235;SDS011;9752;54.270;12.470;2023-07-30T20:04:31;8.70;;;6.50;;
19235;SDS011;9752;54.270;12.470;2023-07-30T20:09:33;11.27;;;6.30;;
19235;SDS011;9752;54.270;12.470;2023-07-30T20:14:35;6.37;;;5.77;;
19235;SDS011;9752;54.270;12.470;2023-07-30T20:19:40;6.80;;;5.97;;
19235;SDS011;9752;54.270;12.470;2023-07-30T20:24:42;7.63;;;5.60;;
19235;SDS011;9752;54.270;12.470;2023-07-30T20:29:43;8.17;;;6.30;;
19235;SDS011;9752;54.270;12.470;2023-07-30T20:34:46;7.20;;;6.03;;
19235;SDS011;9752;54.270;12.470;2023-07-30T20:39:48;9.67;;;6.90;;
19235;SDS011;9752;54.270;12.470;2023-07-30T20:44:50;9.20;;;6.33;;
19235;SDS011;9752;54.270;12.470;2023-07-30T20:49:53;9.13;;;6.90;;
19235;SDS011;9752;54.270;12.470;2023-07-30T20:54:55;7.27;;;6.60;;
19235;SDS011;9752;54.270;12.470;2023-07-30T20:59:57;7.37;;;6.77;;
19235;SDS011;9752;54.270;12.470;2023-07-30T21:05:00;10.20;;;7.00;;
19235;SDS011;9752;54.270;12.470;2023-07-30T21:10:02;8.73;;;6.90;;
19235;SDS011;9752;54.270;12.470;2023-07-30T21:15:04;12.47;;;7.80;;
19235;SDS011;9752;54.270;12.470;2023-07-30T21:20:09;7.27;;;6.73;;
19235;SDS011;9752;54.270;12.470;2023-07-30T21:25:11;8.03;;;7.33;;
19235;SDS011;9752;54.270;12.470;2023-07-30T21:30:13;11.27;;;8.27;;
19235;SDS011;9752;54.270;12.470;2023-07-30T21:35:17;8.93;;;6.60;;
19235;SDS011;9752;54.270;12.470;2023-07-30T21:40:18;12.33;;;6.87;;
19235;SDS011;9752;54.270;12.470;2023-07-30T21:45:20;7.67;;;7.03;;
19235;SDS011;9752;54.270;12.470;2023-07-30T21:50:23;8.97;;;7.07;;
19235;SDS011;9752;54.270;12.470;2023-07-30T21:55:25;7.73;;;6.80;;
19235;SDS011;9752;54.270;12.470;2023-07-30T22:00:27;7.77;;;6.97;;
19235;SDS011;9752;54.270;12.470;2023-07-30T22:05:30;7.80;;;7.10;;
19235;SDS011;9752;54.270;12.470;2023-07-30T22:10:31;8.30;;;6.70;;
19235;SDS011;9752;54.270;12.470;2023-07-30T22:15:33;7.40;;;6.80;;
19235;SDS011;9752;54.270;12.470;2023-07-30T22:20:36;7.17;;;6.50;;
19235;SDS011;9752;54.270;12.470;2023-07-30T22:25:38;7.47;;;6.53;;
19235;SDS011;9752;54.270;12.470;2023-07-30T22:30:40;7.67;;;6.27;;
19235;SDS011;9752;54.270;12.470;2023-07-30T22:35:44;7.77;;;6.00;;
19235;SDS011;9752;54.270;12.470;2023-07-30T22:40:45;6.80;;;6.23;;
19235;SDS011;9752;54.270;12.470;2023-07-30T22:45:47;11.80;;;6.10;;
19235;SDS011;9752;54.270;12.470;2023-07-30T22:50:50;8.07;;;6.50;;
19235;SDS011;9752;54.270;12.470;2023-07-30T22:55:52;8.07;;;6.40;;
19235;SDS011;9752;54.270;12.470;2023-07-30T23:00:53;8.27;;;5.77;;
19235;SDS011;9752;54.270;12.470;2023-07-30T23:05:56;8.77;;;5.77;;
19235;SDS011;9752;54.270;12.470;2023-07-30T23:10:59;7.23;;;5.83;;
19235;SDS011;9752;54.270;12.470;2023-07-30T23:16:01;6.97;;;6.27;;
19235;SDS011;9752;54.270;12.470;2023-07-30T23:21:04;6.57;;;5.93;;
19235;SDS011;9752;54.270;12.470;2023-07-30T23:26:05;11.57;;;5.73;;
19235;SDS011;9752;54.270;12.470;2023-07-30T23:31:07;10.13;;;6.03;;
19235;SDS011;9752;54.270;12.470;2023-07-30T23:36:10;6.07;;;5.27;;
19235;SDS011;9752;54.270;12.470;2023-07-30T23:41:12;7.00;;;5.87;;
19235;SDS011;9752;54.270;12.470;2023-07-30T23:46:14;7.53;;;5.63;;
19235;SDS011;9752;54.270;12.470;2023-07-30T23:51:17;6.43;;;4.87;;
19235;SDS011;9752;54.270;12.470;2023-07-30T23:56:19;11.17;;;6.33;;
